Terminal Aerodrome Forecast
Issued by NWS

Home | Current Version | Previous Version | Text Only | Print | Product List | Glossary On
Versions: 1 2 3 4 5 6 7 8 9 10 11 12 13 14
000
FTUS41 KBTV 011956 AAB
TAFMSS
TAF AMD
KMSS 011956Z 0120/0218 26009KT P6SM VCSH FEW045 SCT080
      TEMPO 0120/0121 -TSRA BKN045CB
     FM020000 23005KT P6SM SCT100
     FM020500 21005KT P6SM FEW150
     FM021300 23009KT P6SM SCT120=

USA.gov is the U.S. government's official web portal to all federal, state and local government web resources and services.